< < Back
Terminal Aerodrome Forecast


Current Version              Previous Versions:   1  2  3  4  5  6  7  8  9  

Terminal Aerodrome Forecast

306
FTUS42 KCHS 011800 AAA
TAFCHS
TAF AMD
KCHS 011809Z 0118/0218 17010KT P6SM VCTS SCT035CB SCT250
      TEMPO 0118/0120 5SM -TSRA BR BKN030CB
     FM020100 21005KT P6SM FEW025 SCT200=



Latest METAR

036
SAUS80 KWBC 012000 RRI
MTRCHS
METAR KCHS 011956Z 16010KT 10SM FEW040 SCT250 33/24 A3006 RMK AO2 SLP179
TCU DSNT NW-N T03330239 $


USA.gov is the U.S. government's official web portal to all federal, state and local government web resources and services.